sensor_id;sensor_type;location;lat;lon;timestamp;P1;durP1;ratioP1;P2;durP2;ratioP2
9166;SDS011;4618;48.818;9.088;2023-04-03T14:19:04;2.53;;;1.47;;
9166;SDS011;4618;48.818;9.088;2023-04-03T14:21:30;2.50;;;1.50;;
9166;SDS011;4618;48.818;9.088;2023-04-03T14:23:55;2.87;;;1.30;;
9166;SDS011;4618;48.818;9.088;2023-04-03T14:26:22;2.13;;;1.53;;
9166;SDS011;4618;48.818;9.088;2023-04-03T14:28:50;1.50;;;1.40;;
9166;SDS011;4618;48.818;9.088;2023-04-03T14:31:18;1.83;;;1.33;;
9166;SDS011;4618;48.818;9.088;2023-04-03T14:33:45;5.43;;;1.53;;
9166;SDS011;4618;48.818;9.088;2023-04-03T14:36:15;2.23;;;1.20;;
9166;SDS011;4618;48.818;9.088;2023-04-03T14:38:52;3.73;;;1.30;;
9166;SDS011;4618;48.818;9.088;2023-04-03T14:41:19;3.80;;;1.57;;
9166;SDS011;4618;48.818;9.088;2023-04-03T14:43:47;4.40;;;1.53;;
9166;SDS011;4618;48.818;9.088;2023-04-03T14:46:33;3.77;;;1.00;;
9166;SDS011;4618;48.818;9.088;2023-04-03T14:49:01;1.57;;;1.10;;
9166;SDS011;4618;48.818;9.088;2023-04-03T14:51:32;2.90;;;1.37;;
9166;SDS011;4618;48.818;9.088;2023-04-03T14:53:59;1.80;;;1.10;;
9166;SDS011;4618;48.818;9.088;2023-04-03T14:56:26;3.30;;;1.10;;
9166;SDS011;4618;48.818;9.088;2023-04-03T14:58:57;2.93;;;1.07;;
9166;SDS011;4618;48.818;9.088;2023-04-03T15:01:25;2.67;;;1.10;;
9166;SDS011;4618;48.818;9.088;2023-04-03T15:03:52;1.57;;;1.00;;
9166;SDS011;4618;48.818;9.088;2023-04-03T15:06:17;2.10;;;1.10;;
9166;SDS011;4618;48.818;9.088;2023-04-03T15:08:44;1.40;;;1.17;;
9166;SDS011;4618;48.818;9.088;2023-04-03T15:11:11;4.60;;;1.50;;
9166;SDS011;4618;48.818;9.088;2023-04-03T15:23:46;1.90;;;1.23;;
9166;SDS011;4618;48.818;9.088;2023-04-03T15:26:12;1.20;;;1.03;;
9166;SDS011;4618;48.818;9.088;2023-04-03T15:28:41;2.13;;;1.20;;
9166;SDS011;4618;48.818;9.088;2023-04-03T15:31:08;1.13;;;1.00;;
9166;SDS011;4618;48.818;9.088;2023-04-03T15:33:35;1.50;;;1.10;;
9166;SDS011;4618;48.818;9.088;2023-04-03T15:36:01;1.60;;;1.30;;
9166;SDS011;4618;48.818;9.088;2023-04-03T15:38:27;1.80;;;1.10;;
9166;SDS011;4618;48.818;9.088;2023-04-03T15:40:53;1.67;;;1.20;;
9166;SDS011;4618;48.818;9.088;2023-04-03T15:43:20;3.53;;;1.50;;
9166;SDS011;4618;48.818;9.088;2023-04-03T15:45:46;2.83;;;1.20;;
9166;SDS011;4618;48.818;9.088;2023-04-03T15:48:12;2.93;;;1.20;;
9166;SDS011;4618;48.818;9.088;2023-04-03T15:50:38;2.30;;;1.20;;
9166;SDS011;4618;48.818;9.088;2023-04-03T15:53:04;3.27;;;1.53;;
9166;SDS011;4618;48.818;9.088;2023-04-03T15:55:32;2.77;;;1.47;;
9166;SDS011;4618;48.818;9.088;2023-04-03T15:57:59;2.40;;;1.30;;
9166;SDS011;4618;48.818;9.088;2023-04-03T16:00:25;1.73;;;1.13;;
9166;SDS011;4618;48.818;9.088;2023-04-03T16:02:52;1.63;;;1.30;;
9166;SDS011;4618;48.818;9.088;2023-04-03T16:05:22;3.00;;;1.50;;
9166;SDS011;4618;48.818;9.088;2023-04-03T16:07:48;2.10;;;1.30;;
9166;SDS011;4618;48.818;9.088;2023-04-03T16:10:15;3.67;;;1.20;;
9166;SDS011;4618;48.818;9.088;2023-04-03T16:12:42;1.47;;;1.27;;
9166;SDS011;4618;48.818;9.088;2023-04-03T16:15:09;2.43;;;1.07;;
9166;SDS011;4618;48.818;9.088;2023-04-03T16:17:35;0.93;;;0.93;;
9166;SDS011;4618;48.818;9.088;2023-04-03T16:20:03;1.93;;;1.00;;
9166;SDS011;4618;48.818;9.088;2023-04-03T16:22:31;3.60;;;1.33;;
9166;SDS011;4618;48.818;9.088;2023-04-03T16:24:56;2.07;;;1.17;;
9166;SDS011;4618;48.818;9.088;2023-04-03T16:29:52;2.10;;;1.30;;
9166;SDS011;4618;48.818;9.088;2023-04-03T16:32:20;2.93;;;1.20;;
9166;SDS011;4618;48.818;9.088;2023-04-03T16:34:47;3.03;;;1.20;;
9166;SDS011;4618;48.818;9.088;2023-04-03T16:37:13;3.03;;;1.20;;
9166;SDS011;4618;48.818;9.088;2023-04-03T16:39:39;2.60;;;1.60;;
9166;SDS011;4618;48.818;9.088;2023-04-03T16:42:05;5.07;;;1.63;;
9166;SDS011;4618;48.818;9.088;2023-04-03T16:44:30;2.20;;;1.60;;
9166;SDS011;4618;48.818;9.088;2023-04-03T17:47:45;2.30;;;1.70;;
9166;SDS011;4618;48.818;9.088;2023-04-03T17:50:11;2.90;;;1.47;;
9166;SDS011;4618;48.818;9.088;2023-04-03T17:52:36;2.70;;;1.70;;
9166;SDS011;4618;48.818;9.088;2023-04-03T17:55:02;2.60;;;1.77;;
9166;SDS011;4618;48.818;9.088;2023-04-03T17:57:29;3.80;;;2.00;;
9166;SDS011;4618;48.818;9.088;2023-04-03T17:59:55;2.50;;;1.87;;
9166;SDS011;4618;48.818;9.088;2023-04-03T18:02:21;2.87;;;1.60;;
9166;SDS011;4618;48.818;9.088;2023-04-03T18:04:49;2.77;;;1.87;;
9166;SDS011;4618;48.818;9.088;2023-04-03T18:07:17;2.33;;;1.70;;
9166;SDS011;4618;48.818;9.088;2023-04-03T18:09:42;1.83;;;1.53;;
9166;SDS011;4618;48.818;9.088;2023-04-03T18:12:11;1.70;;;1.60;;
9166;SDS011;4618;48.818;9.088;2023-04-03T18:14:38;1.90;;;1.80;;
9166;SDS011;4618;48.818;9.088;2023-04-03T18:17:04;2.63;;;1.60;;
9166;SDS011;4618;48.818;9.088;2023-04-03T18:19:30;3.13;;;1.73;;
9166;SDS011;4618;48.818;9.088;2023-04-03T18:21:57;2.53;;;1.53;;
9166;SDS011;4618;48.818;9.088;2023-04-03T18:24:28;3.37;;;1.50;;
9166;SDS011;4618;48.818;9.088;2023-04-03T18:27:00;2.03;;;1.27;;
9166;SDS011;4618;48.818;9.088;2023-04-03T18:29:30;2.50;;;1.40;;
9166;SDS011;4618;48.818;9.088;2023-04-03T18:31:57;1.73;;;1.60;;
9166;SDS011;4618;48.818;9.088;2023-04-03T18:34:28;3.33;;;1.50;;
9166;SDS011;4618;48.818;9.088;2023-04-03T18:36:54;3.33;;;1.70;;
9166;SDS011;4618;48.818;9.088;2023-04-03T18:39:20;1.63;;;1.53;;
9166;SDS011;4618;48.818;9.088;2023-04-03T18:41:45;2.57;;;1.73;;
9166;SDS011;4618;48.818;9.088;2023-04-03T18:44:12;2.53;;;1.60;;
9166;SDS011;4618;48.818;9.088;2023-04-03T18:46:41;2.57;;;1.53;;
9166;SDS011;4618;48.818;9.088;2023-04-03T18:49:07;2.27;;;1.97;;
9166;SDS011;4618;48.818;9.088;2023-04-03T18:51:34;3.83;;;2.40;;
9166;SDS011;4618;48.818;9.088;2023-04-03T18:53:59;3.93;;;3.20;;
9166;SDS011;4618;48.818;9.088;2023-04-03T18:56:25;5.50;;;3.70;;
9166;SDS011;4618;48.818;9.088;2023-04-03T18:58:51;5.73;;;3.90;;
9166;SDS011;4618;48.818;9.088;2023-04-03T19:01:16;5.90;;;3.23;;
9166;SDS011;4618;48.818;9.088;2023-04-03T19:03:42;5.17;;;3.33;;
9166;SDS011;4618;48.818;9.088;2023-04-03T19:06:08;4.33;;;3.10;;
9166;SDS011;4618;48.818;9.088;2023-04-03T19:08:34;3.07;;;2.37;;
9166;SDS011;4618;48.818;9.088;2023-04-03T19:11:00;3.50;;;2.40;;
9166;SDS011;4618;48.818;9.088;2023-04-03T19:13:25;3.33;;;1.83;;
9166;SDS011;4618;48.818;9.088;2023-04-03T19:15:53;3.47;;;2.10;;
9166;SDS011;4618;48.818;9.088;2023-04-03T19:18:22;3.07;;;1.90;;
9166;SDS011;4618;48.818;9.088;2023-04-03T19:20:53;2.20;;;1.60;;
9166;SDS011;4618;48.818;9.088;2023-04-03T19:23:20;4.30;;;2.30;;
9166;SDS011;4618;48.818;9.088;2023-04-03T19:25:46;3.97;;;2.10;;
9166;SDS011;4618;48.818;9.088;2023-04-03T19:28:11;2.40;;;2.00;;
9166;SDS011;4618;48.818;9.088;2023-04-03T19:30:38;2.40;;;2.20;;
9166;SDS011;4618;48.818;9.088;2023-04-03T19:33:04;3.63;;;2.37;;
9166;SDS011;4618;48.818;9.088;2023-04-03T19:35:30;3.40;;;2.37;;
9166;SDS011;4618;48.818;9.088;2023-04-03T19:37:56;2.60;;;2.03;;
9166;SDS011;4618;48.818;9.088;2023-04-03T19:40:22;3.73;;;2.40;;
9166;SDS011;4618;48.818;9.088;2023-04-03T19:42:49;3.13;;;2.00;;
9166;SDS011;4618;48.818;9.088;2023-04-03T19:45:15;2.80;;;2.10;;
9166;SDS011;4618;48.818;9.088;2023-04-03T19:47:42;2.83;;;1.90;;
9166;SDS011;4618;48.818;9.088;2023-04-03T19:50:08;3.27;;;1.70;;
9166;SDS011;4618;48.818;9.088;2023-04-03T19:52:34;2.87;;;1.83;;
9166;SDS011;4618;48.818;9.088;2023-04-03T19:54:59;3.10;;;1.90;;
9166;SDS011;4618;48.818;9.088;2023-04-03T19:57:25;3.07;;;1.90;;
9166;SDS011;4618;48.818;9.088;2023-04-03T19:59:51;2.43;;;1.60;;
9166;SDS011;4618;48.818;9.088;2023-04-03T20:02:17;1.70;;;1.40;;
9166;SDS011;4618;48.818;9.088;2023-04-03T20:04:42;1.70;;;1.33;;
9166;SDS011;4618;48.818;9.088;2023-04-03T20:07:08;4.30;;;1.70;;
9166;SDS011;4618;48.818;9.088;2023-04-03T20:09:34;2.73;;;1.37;;
9166;SDS011;4618;48.818;9.088;2023-04-03T20:12:00;2.53;;;1.33;;
9166;SDS011;4618;48.818;9.088;2023-04-03T20:14:26;2.17;;;1.67;;
9166;SDS011;4618;48.818;9.088;2023-04-03T20:16:52;2.77;;;1.40;;
9166;SDS011;4618;48.818;9.088;2023-04-03T20:19:18;4.50;;;1.40;;
9166;SDS011;4618;48.818;9.088;2023-04-03T20:21:44;3.70;;;1.40;;
9166;SDS011;4618;48.818;9.088;2023-04-03T20:24:09;3.43;;;1.50;;
9166;SDS011;4618;48.818;9.088;2023-04-03T20:26:36;1.60;;;1.10;;
9166;SDS011;4618;48.818;9.088;2023-04-03T20:29:03;3.07;;;1.40;;
9166;SDS011;4618;48.818;9.088;2023-04-03T20:31:29;6.87;;;1.63;;
9166;SDS011;4618;48.818;9.088;2023-04-03T20:33:56;3.40;;;1.33;;
9166;SDS011;4618;48.818;9.088;2023-04-03T20:36:22;1.20;;;1.10;;
9166;SDS011;4618;48.818;9.088;2023-04-03T20:38:50;3.63;;;1.07;;
9166;SDS011;4618;48.818;9.088;2023-04-03T20:41:16;5.43;;;1.50;;
9166;SDS011;4618;48.818;9.088;2023-04-03T20:43:42;1.10;;;1.00;;
9166;SDS011;4618;48.818;9.088;2023-04-03T20:46:09;2.40;;;1.40;;
9166;SDS011;4618;48.818;9.088;2023-04-03T20:48:37;2.30;;;1.50;;
9166;SDS011;4618;48.818;9.088;2023-04-03T20:51:07;2.87;;;1.10;;
9166;SDS011;4618;48.818;9.088;2023-04-03T20:53:34;3.03;;;1.63;;
9166;SDS011;4618;48.818;9.088;2023-04-03T20:56:00;1.80;;;1.37;;
9166;SDS011;4618;48.818;9.088;2023-04-03T20:58:27;3.00;;;1.50;;
9166;SDS011;4618;48.818;9.088;2023-04-03T21:00:54;2.93;;;1.20;;
9166;SDS011;4618;48.818;9.088;2023-04-03T21:03:24;1.77;;;1.17;;
9166;SDS011;4618;48.818;9.088;2023-04-03T21:21:35;3.57;;;1.37;;
9166;SDS011;4618;48.818;9.088;2023-04-03T21:24:01;2.23;;;1.30;;
9166;SDS011;4618;48.818;9.088;2023-04-03T21:26:30;1.93;;;0.90;;
9166;SDS011;4618;48.818;9.088;2023-04-03T21:28:57;3.60;;;1.20;;
9166;SDS011;4618;48.818;9.088;2023-04-03T21:31:23;1.87;;;1.10;;
9166;SDS011;4618;48.818;9.088;2023-04-03T21:33:49;2.60;;;1.17;;
9166;SDS011;4618;48.818;9.088;2023-04-03T21:36:15;3.50;;;1.07;;
9166;SDS011;4618;48.818;9.088;2023-04-03T21:38:41;1.87;;;1.03;;
9166;SDS011;4618;48.818;9.088;2023-04-03T21:41:11;3.33;;;1.50;;
9166;SDS011;4618;48.818;9.088;2023-04-03T21:43:37;1.87;;;1.10;;
9166;SDS011;4618;48.818;9.088;2023-04-03T21:46:03;3.37;;;1.27;;
9166;SDS011;4618;48.818;9.088;2023-04-03T21:48:29;5.30;;;1.33;;
9166;SDS011;4618;48.818;9.088;2023-04-03T21:51:04;2.27;;;1.27;;
9166;SDS011;4618;48.818;9.088;2023-04-03T21:53:30;2.47;;;1.10;;
9166;SDS011;4618;48.818;9.088;2023-04-03T21:56:00;1.73;;;1.10;;
9166;SDS011;4618;48.818;9.088;2023-04-03T21:58:26;3.37;;;1.53;;
9166;SDS011;4618;48.818;9.088;2023-04-03T22:00:54;3.17;;;1.30;;
9166;SDS011;4618;48.818;9.088;2023-04-03T22:03:20;2.00;;;1.23;;
9166;SDS011;4618;48.818;9.088;2023-04-03T22:05:47;3.37;;;1.57;;
9166;SDS011;4618;48.818;9.088;2023-04-03T22:08:14;3.20;;;1.53;;
9166;SDS011;4618;48.818;9.088;2023-04-03T22:10:41;2.73;;;1.20;;
9166;SDS011;4618;48.818;9.088;2023-04-03T22:13:07;2.80;;;1.10;;
9166;SDS011;4618;48.818;9.088;2023-04-03T22:15:37;1.47;;;1.30;;
9166;SDS011;4618;48.818;9.088;2023-04-03T22:18:07;3.57;;;1.33;;
9166;SDS011;4618;48.818;9.088;2023-04-03T22:20:33;2.80;;;1.30;;
9166;SDS011;4618;48.818;9.088;2023-04-03T22:23:00;2.40;;;1.10;;
9166;SDS011;4618;48.818;9.088;2023-04-03T22:25:26;2.03;;;1.23;;
9166;SDS011;4618;48.818;9.088;2023-04-03T22:27:52;1.80;;;1.10;;
9166;SDS011;4618;48.818;9.088;2023-04-03T22:30:18;2.63;;;1.37;;
9166;SDS011;4618;48.818;9.088;2023-04-03T22:32:44;1.97;;;1.37;;
9166;SDS011;4618;48.818;9.088;2023-04-03T22:35:10;2.70;;;1.20;;
9166;SDS011;4618;48.818;9.088;2023-04-03T22:37:36;4.17;;;1.60;;
9166;SDS011;4618;48.818;9.088;2023-04-03T22:40:02;4.10;;;1.63;;
9166;SDS011;4618;48.818;9.088;2023-04-03T22:42:28;2.00;;;1.30;;
9166;SDS011;4618;48.818;9.088;2023-04-03T22:44:54;2.37;;;1.03;;
9166;SDS011;4618;48.818;9.088;2023-04-03T22:47:20;1.30;;;1.20;;
9166;SDS011;4618;48.818;9.088;2023-04-03T22:49:46;3.00;;;1.33;;
9166;SDS011;4618;48.818;9.088;2023-04-03T22:52:12;1.80;;;1.20;;
9166;SDS011;4618;48.818;9.088;2023-04-03T22:54:38;2.50;;;1.30;;
9166;SDS011;4618;48.818;9.088;2023-04-03T22:57:05;1.77;;;1.10;;
9166;SDS011;4618;48.818;9.088;2023-04-03T22:59:31;3.70;;;1.40;;
9166;SDS011;4618;48.818;9.088;2023-04-03T23:01:57;2.23;;;1.33;;
9166;SDS011;4618;48.818;9.088;2023-04-03T23:04:22;2.87;;;1.50;;
9166;SDS011;4618;48.818;9.088;2023-04-03T23:06:48;3.77;;;1.47;;
9166;SDS011;4618;48.818;9.088;2023-04-03T23:09:15;7.17;;;1.63;;
9166;SDS011;4618;48.818;9.088;2023-04-03T23:11:41;2.27;;;1.40;;
9166;SDS011;4618;48.818;9.088;2023-04-03T23:14:07;3.17;;;1.30;;
9166;SDS011;4618;48.818;9.088;2023-04-03T23:16:33;2.03;;;1.13;;
9166;SDS011;4618;48.818;9.088;2023-04-03T23:18:59;3.97;;;1.53;;
9166;SDS011;4618;48.818;9.088;2023-04-03T23:21:25;3.47;;;1.50;;
9166;SDS011;4618;48.818;9.088;2023-04-03T23:23:51;3.10;;;1.40;;
9166;SDS011;4618;48.818;9.088;2023-04-03T23:26:17;4.77;;;1.63;;
9166;SDS011;4618;48.818;9.088;2023-04-03T23:28:43;1.60;;;1.17;;
9166;SDS011;4618;48.818;9.088;2023-04-03T23:31:09;3.60;;;1.60;;
9166;SDS011;4618;48.818;9.088;2023-04-03T23:33:36;2.57;;;1.43;;
9166;SDS011;4618;48.818;9.088;2023-04-03T23:36:06;4.07;;;1.50;;
9166;SDS011;4618;48.818;9.088;2023-04-03T23:38:33;1.40;;;1.30;;
9166;SDS011;4618;48.818;9.088;2023-04-03T23:40:59;2.17;;;1.47;;
9166;SDS011;4618;48.818;9.088;2023-04-03T23:43:25;1.67;;;1.20;;
9166;SDS011;4618;48.818;9.088;2023-04-03T23:45:51;3.87;;;1.53;;
9166;SDS011;4618;48.818;9.088;2023-04-03T23:48:17;2.50;;;1.37;;
9166;SDS011;4618;48.818;9.088;2023-04-03T23:50:43;1.37;;;1.27;;
9166;SDS011;4618;48.818;9.088;2023-04-03T23:53:09;3.53;;;1.50;;
9166;SDS011;4618;48.818;9.088;2023-04-03T23:55:39;3.43;;;1.47;;
9166;SDS011;4618;48.818;9.088;2023-04-03T23:58:04;2.37;;;1.40;;
